createdAt,value
2022-07-28T00:00:19.448Z,14.58
2022-07-28T00:02:53.453Z,14.65
2022-07-28T00:05:22.292Z,14.65
2022-07-28T00:07:50.815Z,14.54
2022-07-28T00:10:19.408Z,14.35
2022-07-28T00:12:51.536Z,14.40
2022-07-28T00:15:22.654Z,14.32
2022-07-28T00:17:54.194Z,14.20
2022-07-28T00:20:22.784Z,14.25
2022-07-28T00:22:53.628Z,14.38
2022-07-28T00:25:27.912Z,14.42
2022-07-28T00:27:56.183Z,13.78
2022-07-28T00:30:26.706Z,14.29
2022-07-28T00:32:57.450Z,14.35
2022-07-28T00:35:31.019Z,14.44
2022-07-28T00:38:08.258Z,14.30
2022-07-28T00:40:58.266Z,14.12
2022-07-28T00:43:27.074Z,14.05
2022-07-28T00:45:59.177Z,14.01
2022-07-28T00:48:27.961Z,14.00
2022-07-28T00:50:57.148Z,14.01
2022-07-28T00:53:25.965Z,13.98
2022-07-28T00:56:06.433Z,13.95
2022-07-28T00:58:36.025Z,13.98
2022-07-28T01:04:02.772Z,13.76
2022-07-28T01:06:53.381Z,13.82
2022-07-28T01:09:43.153Z,13.87
2022-07-28T01:12:22.330Z,13.83
2022-07-28T01:15:02.769Z,13.81
2022-07-28T01:17:44.498Z,13.80
2022-07-28T01:20:17.619Z,13.79
2022-07-28T01:23:03.552Z,13.79
2022-07-28T01:25:48.430Z,13.69
2022-07-28T01:28:30.220Z,12.73
2022-07-28T01:31:06.666Z,13.80
2022-07-28T01:33:39.777Z,13.67
2022-07-28T01:36:14.127Z,13.67
2022-07-28T01:38:45.076Z,13.63
2022-07-28T01:41:19.198Z,13.67
2022-07-28T01:43:52.937Z,13.50
2022-07-28T01:46:23.231Z,13.59
2022-07-28T01:48:52.512Z,13.54
2022-07-28T01:51:25.941Z,13.47
2022-07-28T01:53:59.715Z,13.36
2022-07-28T01:56:30.933Z,13.38
2022-07-28T01:59:04.763Z,13.43
2022-07-28T02:01:37.482Z,13.49
2022-07-28T02:04:11.072Z,13.66
2022-07-28T02:06:47.179Z,13.56
2022-07-28T02:09:16.053Z,13.56
2022-07-28T02:11:53.291Z,13.61
2022-07-28T02:14:24.921Z,13.57
2022-07-28T02:16:58.487Z,13.49
2022-07-28T02:19:32.269Z,13.56
2022-07-28T02:22:02.881Z,13.45
2022-07-28T02:24:32.846Z,13.38
2022-07-28T02:27:11.722Z,13.36
2022-07-28T02:29:51.063Z,13.36
2022-07-28T02:32:33.293Z,13.45
2022-07-28T02:35:09.724Z,13.39
2022-07-28T02:37:46.297Z,13.32
2022-07-28T02:40:18.435Z,13.33
2022-07-28T02:42:49.916Z,13.36
2022-07-28T02:45:22.173Z,13.35
2022-07-28T02:47:57.914Z,13.50
2022-07-28T02:50:30.501Z,13.42
2022-07-28T02:53:15.808Z,13.23
2022-07-28T02:55:48.820Z,13.20
2022-07-28T02:58:22.046Z,13.31
2022-07-28T03:00:55.810Z,13.23
2022-07-28T03:03:29.574Z,13.14
2022-07-28T03:05:57.810Z,13.23
2022-07-28T03:08:27.682Z,12.95
2022-07-28T03:11:12.227Z,12.82
2022-07-28T03:13:44.976Z,12.92
2022-07-28T03:16:16.750Z,13.31
2022-07-28T03:18:46.860Z,13.21
2022-07-28T03:21:25.662Z,13.11
2022-07-28T03:23:57.740Z,13.03
2022-07-28T03:26:41.778Z,13.07
2022-07-28T03:29:13.261Z,12.99
2022-07-28T03:31:48.166Z,12.99
2022-07-28T03:34:22.021Z,12.98
2022-07-28T03:36:58.319Z,13.02
2022-07-28T03:39:33.053Z,12.30
2022-07-28T03:42:04.266Z,12.86
2022-07-28T03:44:35.266Z,12.84
2022-07-28T03:47:04.199Z,12.85
2022-07-28T03:49:36.992Z,12.89
2022-07-28T03:52:10.304Z,12.88
2022-07-28T03:54:41.253Z,12.77
2022-07-28T03:57:10.110Z,12.84
2022-07-28T03:59:38.391Z,12.63
2022-07-28T04:02:09.363Z,12.62
2022-07-28T04:04:39.495Z,12.62
2022-07-28T04:07:08.103Z,12.68
2022-07-28T04:09:38.960Z,12.47
2022-07-28T04:12:08.297Z,12.57
2022-07-28T04:14:38.674Z,12.58
2022-07-28T04:17:13.513Z,12.46
2022-07-28T04:19:43.592Z,12.56
2022-07-28T04:22:17.293Z,12.66
2022-07-28T04:24:49.003Z,12.80
2022-07-28T04:27:21.907Z,12.76
2022-07-28T04:29:52.158Z,12.84
2022-07-28T04:32:21.925Z,12.85
2022-07-28T04:34:57.033Z,12.88
2022-07-28T04:37:25.617Z,12.82
2022-07-28T04:40:02.044Z,12.75
2022-07-28T04:42:30.293Z,12.66
2022-07-28T04:44:59.411Z,12.74
2022-07-28T04:47:35.278Z,12.70
2022-07-28T04:50:08.750Z,12.63
2022-07-28T04:52:40.024Z,12.61
2022-07-28T04:55:11.250Z,12.58
2022-07-28T04:57:40.665Z,12.63
2022-07-28T05:00:13.699Z,12.59
2022-07-28T05:02:46.457Z,12.61
2022-07-28T05:05:16.235Z,12.65
2022-07-28T05:07:46.920Z,12.72
2022-07-28T05:10:15.303Z,12.84
2022-07-28T05:12:47.310Z,12.75
2022-07-28T05:15:15.373Z,12.82
2022-07-28T05:17:45.871Z,12.92
2022-07-28T05:20:17.567Z,13.14
2022-07-28T05:22:50.914Z,13.35
2022-07-28T05:25:22.767Z,13.54
2022-07-28T05:27:52.942Z,13.66
2022-07-28T05:30:22.183Z,13.69
2022-07-28T05:32:51.168Z,13.48
2022-07-28T05:35:21.871Z,13.45
2022-07-28T05:37:54.808Z,13.49
2022-07-28T05:40:26.660Z,13.43
2022-07-28T05:42:55.025Z,13.31
2022-07-28T05:45:24.374Z,13.14
2022-07-28T05:47:54.316Z,13.10
2022-07-28T05:50:25.251Z,13.02
2022-07-28T05:52:54.013Z,13.18
2022-07-28T05:55:22.610Z,13.34
2022-07-28T05:57:52.046Z,13.30
2022-07-28T06:00:27.173Z,13.39
2022-07-28T06:03:02.015Z,13.46
2022-07-28T06:05:32.752Z,13.26
2022-07-28T06:08:01.406Z,13.51
2022-07-28T06:10:47.398Z,13.51
2022-07-28T06:13:19.743Z,13.73
2022-07-28T06:15:49.227Z,13.98
2022-07-28T06:18:21.881Z,14.40
2022-07-28T06:20:51.350Z,14.81
2022-07-28T06:23:23.571Z,15.15
2022-07-28T06:25:53.622Z,15.10
2022-07-28T06:28:22.022Z,15.18
2022-07-28T06:30:50.778Z,14.86
2022-07-28T06:33:21.477Z,15.06
2022-07-28T06:35:51.793Z,15.22
2022-07-28T06:38:20.762Z,15.18
2022-07-28T06:40:50.906Z,15.20
2022-07-28T06:43:20.961Z,15.26
2022-07-28T06:45:49.092Z,15.19
2022-07-28T06:48:17.973Z,15.38
2022-07-28T06:50:47.026Z,15.40
2022-07-28T06:53:19.372Z,15.74
2022-07-28T06:55:49.877Z,16.02
2022-07-28T06:58:18.522Z,16.15
2022-07-28T07:00:47.622Z,16.29
2022-07-28T07:03:15.938Z,16.40
2022-07-28T07:05:46.809Z,16.44
2022-07-28T07:08:24.606Z,16.49
2022-07-28T07:10:53.391Z,16.43
2022-07-28T07:13:23.484Z,16.53
2022-07-28T07:15:52.020Z,17.02
2022-07-28T07:18:20.420Z,17.15
2022-07-28T07:20:50.556Z,16.88
2022-07-28T07:23:19.028Z,17.08
2022-07-28T07:25:52.092Z,17.36
2022-07-28T07:28:20.750Z,17.77
2022-07-28T07:30:49.605Z,17.96
2022-07-28T07:33:19.138Z,18.15
2022-07-28T07:35:47.702Z,18.26
2022-07-28T07:38:15.975Z,18.26
2022-07-28T07:40:44.680Z,18.31
2022-07-28T07:43:14.456Z,18.40
2022-07-28T07:45:42.971Z,18.60
2022-07-28T07:48:11.376Z,18.59
2022-07-28T07:50:41.912Z,18.68
2022-07-28T07:53:12.706Z,18.77
2022-07-28T07:55:40.762Z,18.88
2022-07-28T07:58:09.932Z,18.80
2022-07-28T08:00:40.867Z,19.12
2022-07-28T08:03:12.361Z,19.38
2022-07-28T08:05:42.387Z,19.65
2022-07-28T08:08:11.563Z,19.54
2022-07-28T08:10:41.583Z,19.74
2022-07-28T08:13:12.307Z,19.83
2022-07-28T08:15:42.312Z,19.81
2022-07-28T08:18:12.969Z,19.88
2022-07-28T08:20:53.882Z,19.80
2022-07-28T08:23:26.186Z,19.96
2022-07-28T08:25:55.648Z,19.74
2022-07-28T08:28:24.265Z,19.61
2022-07-28T08:30:56.955Z,19.65
2022-07-28T08:33:27.773Z,19.86
2022-07-28T08:35:58.813Z,19.84
2022-07-28T08:38:28.455Z,20.20
2022-07-28T08:40:58.958Z,20.46
2022-07-28T08:43:35.200Z,20.56
2022-07-28T08:46:07.276Z,20.80
2022-07-28T08:48:40.130Z,20.73
2022-07-28T08:51:09.405Z,20.18
2022-07-28T08:53:39.220Z,20.28
2022-07-28T08:56:09.600Z,20.53
2022-07-28T08:58:39.680Z,20.96
2022-07-28T09:01:14.729Z,21.04
2022-07-28T09:03:44.275Z,21.12
2022-07-28T09:06:13.509Z,21.52
2022-07-28T09:08:47.808Z,21.69
2022-07-28T09:11:19.318Z,21.69
2022-07-28T09:13:52.190Z,21.93
2022-07-28T09:16:24.521Z,21.73
2022-07-28T09:18:54.082Z,21.62
2022-07-28T09:21:22.845Z,21.66
2022-07-28T09:23:54.362Z,21.72
2022-07-28T09:26:23.285Z,21.69
2022-07-28T09:28:56.961Z,21.89
2022-07-28T09:31:30.882Z,22.20
2022-07-28T09:34:02.498Z,22.32
2022-07-28T09:36:40.326Z,22.31
2022-07-28T09:39:10.589Z,22.41
2022-07-28T09:41:49.473Z,22.00
2022-07-28T09:44:23.630Z,21.65
2022-07-28T09:46:53.598Z,21.92
2022-07-28T09:49:28.660Z,21.96
2022-07-28T09:52:02.861Z,21.59
2022-07-28T09:54:31.690Z,21.74
2022-07-28T09:56:59.924Z,21.54
2022-07-28T09:59:41.998Z,21.78
2022-07-28T10:02:28.193Z,21.88
2022-07-28T10:05:00.989Z,22.01
2022-07-28T10:07:33.197Z,22.23
2022-07-28T10:10:02.746Z,22.67
2022-07-28T10:12:35.144Z,22.30
2022-07-28T10:15:34.437Z,22.34
2022-07-28T10:18:07.578Z,22.13
2022-07-28T10:20:39.071Z,22.21
2022-07-28T10:23:11.769Z,21.94
2022-07-28T10:25:41.954Z,22.09
2022-07-28T10:28:12.932Z,22.06
2022-07-28T10:30:44.355Z,22.07
2022-07-28T10:33:18.115Z,21.24
2022-07-28T10:35:55.298Z,21.65
2022-07-28T10:38:27.631Z,21.86
2022-07-28T10:41:00.713Z,21.96
2022-07-28T10:43:31.297Z,22.21
2022-07-28T10:46:06.122Z,22.24
2022-07-28T10:48:39.839Z,22.43
2022-07-28T10:51:18.299Z,22.53
2022-07-28T10:53:57.006Z,22.61
2022-07-28T10:56:35.741Z,22.68
2022-07-28T10:59:16.650Z,22.80
2022-07-28T12:33:53.887Z,23.90
2022-07-28T12:36:27.545Z,23.90
2022-07-28T12:38:57.345Z,24.18
2022-07-28T12:41:35.616Z,23.99
2022-07-28T12:44:06.783Z,24.05
2022-07-28T12:46:35.412Z,24.01
2022-07-28T12:49:06.061Z,24.06
2022-07-28T12:51:41.675Z,23.87
2022-07-28T12:54:12.242Z,24.14
2022-07-28T12:56:47.385Z,24.23
2022-07-28T12:59:19.666Z,24.24
2022-07-28T13:01:52.743Z,24.31
2022-07-28T13:05:08.381Z,24.47
2022-07-28T13:07:43.494Z,24.31
2022-07-28T13:10:13.211Z,23.93
2022-07-28T13:12:43.602Z,24.14
2022-07-28T13:15:18.119Z,24.26
2022-07-28T13:17:53.641Z,24.09
2022-07-28T13:20:26.154Z,24.02
2022-07-28T13:23:00.596Z,23.90
2022-07-28T13:25:34.212Z,23.93
2022-07-28T13:28:03.134Z,23.81
2022-07-28T13:30:31.414Z,23.91
2022-07-28T13:33:09.396Z,23.86
2022-07-28T13:35:41.951Z,24.12
2022-07-28T13:38:14.249Z,23.82
2022-07-28T13:40:43.317Z,23.77
2022-07-28T13:43:12.854Z,23.74
2022-07-28T13:45:44.610Z,23.55
2022-07-28T13:48:17.397Z,23.60
2022-07-28T13:50:45.814Z,23.33
2022-07-28T13:53:15.207Z,23.22
2022-07-28T13:55:43.661Z,23.18
2022-07-28T13:58:13.012Z,23.12
2022-07-28T14:00:43.619Z,23.13
2022-07-28T14:03:15.325Z,23.12
2022-07-28T14:05:48.378Z,22.82
2022-07-28T14:08:25.159Z,23.01
2022-07-28T14:10:59.732Z,23.04
2022-07-28T14:13:32.004Z,23.06
2022-07-28T14:16:14.379Z,23.22
2022-07-28T14:18:43.220Z,23.33
2022-07-28T14:21:11.685Z,23.52
2022-07-28T14:23:42.100Z,23.64
2022-07-28T14:26:34.942Z,23.47
2022-07-28T14:29:02.061Z,22.92
2022-07-28T14:31:30.923Z,22.98
2022-07-28T14:34:03.632Z,23.17
2022-07-28T14:36:32.752Z,23.33
2022-07-28T14:39:02.439Z,23.45
2022-07-28T14:41:33.904Z,23.52
2022-07-28T14:44:02.368Z,23.14
2022-07-28T14:46:30.385Z,23.44
2022-07-28T14:48:59.004Z,22.70
2022-07-28T14:51:27.563Z,23.49
2022-07-28T14:53:57.844Z,23.56
2022-07-28T14:56:27.635Z,23.57
2022-07-28T14:58:58.868Z,23.55
2022-07-28T15:01:27.871Z,23.75
2022-07-28T15:04:04.538Z,23.64
2022-07-28T15:06:32.740Z,23.51
2022-07-28T15:09:03.515Z,23.16
2022-07-28T15:11:37.122Z,22.91
2022-07-28T15:14:11.866Z,22.84
2022-07-28T15:16:43.774Z,22.76
2022-07-28T15:19:12.659Z,21.98
2022-07-28T15:21:40.987Z,22.04
2022-07-28T15:24:10.717Z,22.07
2022-07-28T15:26:43.182Z,22.11
2022-07-28T15:29:13.792Z,22.08
2022-07-28T15:31:45.339Z,22.20
2022-07-28T15:34:18.334Z,21.65
2022-07-28T15:36:47.898Z,21.59
2022-07-28T15:39:16.336Z,21.47
2022-07-28T15:41:47.944Z,21.85
2022-07-28T15:44:18.543Z,21.41
2022-07-28T15:46:57.709Z,20.72
2022-07-28T15:49:28.822Z,21.53
2022-07-28T15:52:03.010Z,21.25
2022-07-28T15:54:31.609Z,20.97
2022-07-28T15:57:03.874Z,20.85
2022-07-28T15:59:50.170Z,21.07
2022-07-28T16:02:19.555Z,21.28
2022-07-28T16:04:48.773Z,21.35
2022-07-28T16:07:29.692Z,21.28
2022-07-28T16:09:59.991Z,21.10
2022-07-28T16:12:31.572Z,21.17
2022-07-28T16:15:01.774Z,21.18
2022-07-28T16:17:34.879Z,20.98
2022-07-28T16:20:03.169Z,21.04
2022-07-28T16:22:32.200Z,21.18
2022-07-28T16:25:02.777Z,21.26
2022-07-28T16:27:32.470Z,21.20
2022-07-28T16:30:00.853Z,20.94
2022-07-28T16:32:33.997Z,21.01
2022-07-28T16:35:02.444Z,20.87
2022-07-28T16:37:40.253Z,21.13
2022-07-28T16:40:12.658Z,21.04
2022-07-28T16:42:48.647Z,21.00
2022-07-28T16:45:19.389Z,20.79
2022-07-28T16:47:48.831Z,20.93
2022-07-28T16:50:19.278Z,20.94
2022-07-28T16:52:49.676Z,20.73
2022-07-28T16:55:23.230Z,20.66
2022-07-28T16:57:53.447Z,20.80
2022-07-28T17:00:25.640Z,20.69
2022-07-28T17:02:56.645Z,20.60
2022-07-28T17:05:25.372Z,20.50
2022-07-28T17:07:56.681Z,20.57
2022-07-28T17:10:27.405Z,20.56
2022-07-28T17:12:58.556Z,20.55
2022-07-28T17:15:29.092Z,20.36
2022-07-28T17:17:57.471Z,20.46
2022-07-28T17:20:26.729Z,20.25
2022-07-28T17:22:54.835Z,20.43
2022-07-28T17:25:50.251Z,20.27
2022-07-28T17:28:17.104Z,20.38
2022-07-28T17:30:45.774Z,20.30
2022-07-28T17:33:14.857Z,20.41
2022-07-28T17:35:45.063Z,20.44
2022-07-28T17:38:15.819Z,20.26
2022-07-28T17:40:47.325Z,20.29
2022-07-28T17:43:19.421Z,20.24
2022-07-28T17:45:51.858Z,20.29
2022-07-28T17:48:24.054Z,20.32
2022-07-28T17:50:52.334Z,20.41
2022-07-28T17:53:21.313Z,20.23
2022-07-28T17:56:00.352Z,20.08
2022-07-28T17:58:32.657Z,20.15
2022-07-28T18:01:10.194Z,20.18
2022-07-28T18:03:56.644Z,20.22
2022-07-28T18:06:30.015Z,20.33
2022-07-28T18:09:05.744Z,20.23
2022-07-28T18:11:56.642Z,20.00
2022-07-28T18:14:29.623Z,20.06
2022-07-28T18:17:01.434Z,20.21
2022-07-28T18:19:31.061Z,20.02
2022-07-28T18:21:59.616Z,19.88
2022-07-28T18:24:28.957Z,19.95
2022-07-28T18:26:59.280Z,19.69
2022-07-28T18:29:38.637Z,19.68
2022-07-28T18:32:15.282Z,19.73
2022-07-28T18:34:45.387Z,19.76
2022-07-28T18:37:13.953Z,19.67
2022-07-28T18:39:45.272Z,19.64
2022-07-28T18:42:16.410Z,19.64
2022-07-28T18:44:50.112Z,18.88
2022-07-28T18:47:18.408Z,19.72
2022-07-28T18:49:47.141Z,19.58
2022-07-28T18:52:18.725Z,19.45
2022-07-28T18:54:48.318Z,19.40
2022-07-28T18:57:17.173Z,19.37
2022-07-28T18:59:52.035Z,19.30
2022-07-28T19:02:26.301Z,19.40
2022-07-28T19:04:54.510Z,19.15
2022-07-28T19:07:22.807Z,19.25
2022-07-28T19:09:53.077Z,19.26
2022-07-28T19:12:26.400Z,19.27
2022-07-28T19:14:57.562Z,19.17
2022-07-28T19:17:29.365Z,19.14
2022-07-28T19:19:59.350Z,19.15
2022-07-28T19:22:29.428Z,19.05
2022-07-28T19:24:58.905Z,18.95
2022-07-28T19:27:27.349Z,19.02
2022-07-28T19:30:03.676Z,18.96
2022-07-28T19:32:38.482Z,18.87
2022-07-28T19:35:09.430Z,18.86
2022-07-28T19:37:39.010Z,18.81
2022-07-28T19:40:08.404Z,18.81
2022-07-28T19:42:37.266Z,18.86
2022-07-28T19:45:08.874Z,18.69
2022-07-28T19:47:41.761Z,18.65
2022-07-28T19:50:11.304Z,18.62
2022-07-28T19:52:39.525Z,18.58
2022-07-28T19:55:11.167Z,18.51
2022-07-28T19:57:42.196Z,18.42
2022-07-28T20:00:12.973Z,18.46
2022-07-28T20:02:42.965Z,18.46
2022-07-28T20:05:11.804Z,18.40
2022-07-28T20:07:42.337Z,18.33
2022-07-28T20:10:14.916Z,18.26
2022-07-28T20:12:43.052Z,18.32
2022-07-28T20:15:11.790Z,18.28
2022-07-28T20:17:40.894Z,18.20
2022-07-28T20:20:13.647Z,18.10
2022-07-28T20:22:42.958Z,18.14
2022-07-28T20:25:13.092Z,18.09
2022-07-28T20:27:47.534Z,18.05
2022-07-28T20:30:19.246Z,18.06
2022-07-28T20:32:47.540Z,17.98
2022-07-28T20:35:19.400Z,17.98
2022-07-28T20:37:48.308Z,17.93
2022-07-28T20:40:28.943Z,17.95
2022-07-28T20:42:57.579Z,17.85
2022-07-28T20:45:34.498Z,17.85
2022-07-28T20:48:05.894Z,17.80
2022-07-28T20:50:37.907Z,17.82
2022-07-28T20:53:10.088Z,17.79
2022-07-28T20:55:38.863Z,17.72
2022-07-28T20:58:07.678Z,17.75
2022-07-28T21:00:38.890Z,17.78
2022-07-28T21:03:07.022Z,17.81
2022-07-28T21:05:36.099Z,17.80
2022-07-28T21:08:16.339Z,17.68
2022-07-28T21:10:45.989Z,17.59
2022-07-28T21:13:15.095Z,17.68
2022-07-28T21:15:43.991Z,17.49
2022-07-28T21:18:13.277Z,17.51
2022-07-28T21:20:43.694Z,17.62
2022-07-28T21:23:13.355Z,17.55
2022-07-28T21:25:45.335Z,17.55
2022-07-28T21:28:32.220Z,17.64
2022-07-28T21:31:01.703Z,17.57
2022-07-28T21:33:33.586Z,17.50
2022-07-28T21:36:04.289Z,17.52
2022-07-28T21:38:33.713Z,17.53
2022-07-28T21:41:04.506Z,17.58
2022-07-28T21:43:37.899Z,17.48
2022-07-28T21:46:09.057Z,17.54
2022-07-28T21:48:39.907Z,17.49
2022-07-28T21:51:18.380Z,17.58
2022-07-28T21:53:54.662Z,17.44
2022-07-28T21:56:24.302Z,17.39
2022-07-28T21:58:52.605Z,17.44
2022-07-28T22:01:23.998Z,17.42
2022-07-28T22:03:52.715Z,17.37
2022-07-28T22:06:21.875Z,17.43
2022-07-28T22:08:54.272Z,17.31
2022-07-28T22:11:24.346Z,17.28
2022-07-28T22:14:07.938Z,17.19
2022-07-28T22:16:36.878Z,17.15
2022-07-28T22:19:05.687Z,17.27
2022-07-28T22:21:38.275Z,17.20
2022-07-28T22:24:07.015Z,17.13
2022-07-28T22:26:39.476Z,17.21
2022-07-28T22:29:11.809Z,17.20
2022-07-28T22:31:42.877Z,16.99
2022-07-28T22:34:11.338Z,16.99
2022-07-28T22:36:39.857Z,17.00
2022-07-28T22:39:08.647Z,17.11
2022-07-28T22:41:36.675Z,17.06
2022-07-28T22:44:09.176Z,16.98
2022-07-28T22:46:37.697Z,17.00
2022-07-28T22:49:07.227Z,16.98
2022-07-28T22:51:36.973Z,16.94
2022-07-28T22:56:58.667Z,16.97
2022-07-28T22:59:29.994Z,17.11
2022-07-28T23:02:03.044Z,16.95
2022-07-28T23:04:31.831Z,16.97
2022-07-28T23:07:03.027Z,16.88
2022-07-28T23:09:31.122Z,16.77
2022-07-28T23:11:59.969Z,16.66
2022-07-28T23:14:29.503Z,16.64
2022-07-28T23:16:57.852Z,16.75
2022-07-28T23:19:29.014Z,16.67
2022-07-28T23:21:58.202Z,16.55
2022-07-28T23:24:26.740Z,16.47
2022-07-28T23:27:00.656Z,16.56
2022-07-28T23:29:32.792Z,16.49
2022-07-28T23:32:01.308Z,16.50
2022-07-28T23:34:29.764Z,16.58
2022-07-28T23:36:58.539Z,16.55
2022-07-28T23:39:26.834Z,16.38
2022-07-28T23:41:55.361Z,16.36
2022-07-28T23:44:26.021Z,16.43
2022-07-28T23:46:57.118Z,16.43
2022-07-28T23:49:25.305Z,16.38
2022-07-28T23:51:55.950Z,16.43
2022-07-28T23:54:25.287Z,16.35
2022-07-28T23:56:59.672Z,16.34
2022-07-28T23:59:29.535Z,16.32
